Time;durP1;ratioP1;P1;durP2;ratioP2;P2;SDS_P1;SDS_P2;PMS_P1;PMS_P2;Temp;Humidity;BMP_temperature;BMP_pressure;BME280_temperature;BME280_humidity;BME280_pressure;Samples;Min_cycle;Max_cycle;Signal;HPM_P1;HPM_P2
2021/12/03 00:02:19;;;;;;;1.17;0.55;;;;;;;20.13;31.80;98634.75;5069685;28;20033;-56
2021/12/03 00:04:44;;;;;;;0.90;0.50;;;;;;;20.16;31.81;98635.97;5069516;28;20101;-56
2021/12/03 00:07:10;;;;;;;1.20;0.60;;;;;;;20.16;31.92;98638.75;5069631;28;20139;-56
2021/12/03 00:09:36;;;;;;;1.52;0.70;;;;;;;20.15;32.02;98639.94;5069578;28;20045;-55
2021/12/03 00:12:03;;;;;;;0.70;0.50;;;;;;;20.14;31.89;98639.09;5069504;28;20178;-56
2021/12/03 00:14:29;;;;;;;1.70;0.80;;;;;;;20.15;31.95;98651.03;5069090;28;20040;-56
2021/12/03 00:16:54;;;;;;;0.55;0.40;;;;;;;20.16;31.83;98639.53;5069495;28;20051;-56
2021/12/03 00:19:20;;;;;;;0.95;0.55;;;;;;;20.39;31.72;98657.88;5069385;28;20125;-56
2021/12/03 00:21:45;;;;;;;1.42;0.70;;;;;;;21.36;30.08;98659.75;5069280;28;20463;-56
2021/12/03 00:24:11;;;;;;;0.95;0.57;;;;;;;21.75;29.34;98664.53;5069415;28;20090;-56
2021/12/03 00:26:37;;;;;;;1.15;0.65;;;;;;;21.47;29.54;98660.56;5069364;28;20048;-55
2021/12/03 00:29:04;;;;;;;0.73;0.50;;;;;;;21.20;30.04;98665.66;5069187;28;20102;-56
2021/12/03 00:31:29;;;;;;;0.75;0.50;;;;;;;20.94;30.50;98666.84;5069030;28;20040;-56
2021/12/03 00:33:55;;;;;;;0.88;0.50;;;;;;;20.74;30.72;98669.16;5069249;28;20075;-56
2021/12/03 00:36:20;;;;;;;0.65;0.47;;;;;;;20.63;30.94;98679.44;5069285;28;20135;-56
2021/12/03 00:38:49;;;;;;;0.85;0.45;;;;;;;20.54;31.05;98681.78;5069355;28;20405;-56
2021/12/03 00:41:19;;;;;;;0.55;0.40;;;;;;;20.48;31.10;98692.47;5068743;28;20094;-56
2021/12/03 00:43:46;;;;;;;1.15;0.60;;;;;;;20.46;31.07;98705.16;5069136;28;20052;-56
2021/12/03 00:46:15;;;;;;;0.45;0.32;;;;;;;20.41;31.01;98709.06;5069294;28;20537;-56
2021/12/03 00:48:41;;;;;;;0.85;0.43;;;;;;;20.38;31.08;98709.06;5068956;28;20507;-56
2021/12/03 00:51:09;;;;;;;0.30;0.25;;;;;;;20.38;31.06;98709.84;5069614;28;20045;-56
2021/12/03 00:53:34;;;;;;;1.08;0.60;;;;;;;20.33;31.05;98702.69;5072411;28;20049;-57
2021/12/03 00:56:00;;;;;;;1.00;0.60;;;;;;;20.31;31.20;98709.81;5072550;28;20394;-57
2021/12/03 00:58:26;;;;;;;0.32;0.30;;;;;;;20.31;31.21;98724.50;5054634;28;20404;-56
2021/12/03 01:00:52;;;;;;;0.60;0.32;;;;;;;20.29;31.17;98715.78;5070336;28;20527;-56
2021/12/03 01:03:17;;;;;;;0.60;0.38;;;;;;;20.31;31.01;98718.94;5072345;28;20454;-56
2021/12/03 01:05:43;;;;;;;0.47;0.35;;;;;;;20.29;31.16;98726.88;5072260;28;20040;-55
2021/12/03 01:08:09;;;;;;;0.50;0.40;;;;;;;20.30;31.21;98731.25;5072123;28;20060;-56
2021/12/03 01:10:34;;;;;;;0.45;0.28;;;;;;;20.32;31.04;98736.41;5072035;28;20146;-56
2021/12/03 01:13:00;;;;;;;0.68;0.40;;;;;;;20.27;31.14;98736.75;5072325;28;20063;-56
2021/12/03 01:15:31;;;;;;;0.30;0.30;;;;;;;20.28;31.16;98735.56;5068233;28;20055;-57
2021/12/03 01:17:57;;;;;;;0.40;0.30;;;;;;;20.29;31.13;98746.31;5071933;28;20485;-57
2021/12/03 01:20:23;;;;;;;0.90;0.40;;;;;;;20.29;30.93;98737.19;5071922;28;20523;-57
2021/12/03 01:22:51;;;;;;;0.38;0.32;;;;;;;20.29;30.95;98740.75;5071911;28;20048;-57
2021/12/03 01:25:19;;;;;;;0.70;0.30;;;;;;;20.29;30.93;98746.31;5072056;28;20551;-57
2021/12/03 01:27:46;;;;;;;0.43;0.30;;;;;;;20.29;31.00;98757.44;5071949;28;20040;-57
2021/12/03 01:30:15;;;;;;;0.98;0.43;;;;;;;20.26;30.96;98755.41;5071762;28;20041;-57
2021/12/03 01:32:42;;;;;;;0.30;0.30;;;;;;;20.27;31.04;98758.97;5071959;28;20503;-57
2021/12/03 01:35:09;;;;;;;0.57;0.40;;;;;;;20.29;31.15;98770.53;5068457;28;20080;-57
2021/12/03 01:37:36;;;;;;;0.70;0.30;;;;;;;20.28;31.13;98777.22;5071429;28;20157;-57
2021/12/03 01:40:05;;;;;;;0.35;0.30;;;;;;;20.28;30.95;98782.78;5071533;28;20150;-57
2021/12/03 01:42:30;;;;;;;0.50;0.30;;;;;;;20.26;31.09;98785.97;5071776;28;20044;-56
2021/12/03 01:44:56;;;;;;;0.40;0.25;;;;;;;20.26;31.04;98785.16;5071630;28;20515;-57
2021/12/03 01:47:21;;;;;;;0.65;0.40;;;;;;;20.28;30.95;98786.34;5071739;28;20075;-57
2021/12/03 01:49:47;;;;;;;0.38;0.28;;;;;;;20.25;30.95;98772.47;5071655;28;20040;-57
2021/12/03 01:52:12;;;;;;;0.43;0.40;;;;;;;20.27;30.93;98781.19;5071734;28;20044;-56
2021/12/03 01:54:38;;;;;;;0.50;0.30;;;;;;;20.30;30.90;98783.22;5071564;28;20361;-56
2021/12/03 01:57:04;;;;;;;0.65;0.40;;;;;;;20.32;30.90;98794.72;5071540;28;20055;-56
2021/12/03 01:59:29;;;;;;;0.40;0.25;;;;;;;20.30;30.82;98789.56;5071659;28;20044;-56
2021/12/03 02:01:54;;;;;;;0.63;0.35;;;;;;;20.29;30.94;98790.75;5071154;28;20097;-57
2021/12/03 02:04:20;;;;;;;0.95;0.50;;;;;;;20.29;30.91;98781.63;5070565;28;20197;-57
2021/12/03 02:06:46;;;;;;;0.52;0.40;;;;;;;20.28;30.83;98777.22;5071432;28;20052;-57
2021/12/03 02:09:11;;;;;;;0.65;0.40;;;;;;;20.29;30.84;98779.66;5071338;28;20044;-56
2021/12/03 02:11:37;;;;;;;0.60;0.35;;;;;;;20.31;30.76;98768.94;5071044;28;20462;-56
2021/12/03 02:14:03;;;;;;;0.85;0.50;;;;;;;20.31;30.64;98762.59;5071287;28;20052;-56
2021/12/03 02:16:28;;;;;;;0.85;0.40;;;;;;;20.37;30.63;98772.16;5071074;28;20056;-56
2021/12/03 02:18:54;;;;;;;0.50;0.32;;;;;;;20.37;30.43;98774.13;5071168;28;20451;-56
2021/12/03 02:21:21;;;;;;;0.93;0.50;;;;;;;20.37;30.33;98769.38;5071118;28;20041;-57
2021/12/03 02:23:47;;;;;;;1.10;0.45;;;;;;;20.38;30.53;98767.41;5071089;28;20072;-57
2021/12/03 02:26:14;;;;;;;0.90;0.40;;;;;;;20.39;30.37;98763.44;5071247;28;20143;-57
2021/12/03 02:28:43;;;;;;;0.30;0.30;;;;;;;20.39;30.46;98761.44;5070916;28;20515;-57
2021/12/03 02:31:09;;;;;;;1.05;0.40;;;;;;;20.41;30.37;98759.06;5071088;28;20530;-57
2021/12/03 02:33:35;;;;;;;0.60;0.40;;;;;;;20.41;30.49;98761.84;5071196;28;20040;-57
2021/12/03 02:36:05;;;;;;;0.70;0.40;;;;;;;20.42;30.31;98759.88;5071033;28;20049;-57
2021/12/03 02:38:31;;;;;;;0.47;0.40;;;;;;;20.41;30.38;98763.81;5070945;28;20052;-57
2021/12/03 02:40:58;;;;;;;0.73;0.50;;;;;;;20.39;30.44;98750.34;5070888;28;20182;-57
2021/12/03 02:43:23;;;;;;;0.57;0.35;;;;;;;20.38;30.33;98753.50;5070995;28;20044;-57
2021/12/03 02:45:52;;;;;;;0.35;0.30;;;;;;;20.41;30.28;98758.28;5070528;28;20059;-57
2021/12/03 02:48:19;;;;;;;0.63;0.40;;;;;;;20.43;30.35;98764.22;5070898;28;20040;-57
2021/12/03 02:50:45;;;;;;;0.63;0.47;;;;;;;20.42;30.17;98763.44;5069963;28;20048;-57
2021/12/03 02:53:11;;;;;;;0.55;0.40;;;;;;;20.42;30.16;98759.88;5070702;28;20061;-57
2021/12/03 02:55:36;;;;;;;1.52;0.55;;;;;;;20.43;30.17;98765.06;5070556;28;20508;-57
2021/12/03 02:58:02;;;;;;;0.40;0.30;;;;;;;20.42;30.33;98759.88;5070503;28;20531;-57
2021/12/03 03:00:28;;;;;;;0.50;0.30;;;;;;;20.42;30.42;98757.09;5069991;28;20075;-57
2021/12/03 03:02:55;;;;;;;0.60;0.38;;;;;;;20.43;30.36;98758.69;5070693;28;20516;-57
2021/12/03 03:05:23;;;;;;;0.30;0.20;;;;;;;21.06;29.58;98760.97;5070636;28;20075;-57
2021/12/03 03:07:50;;;;;;;0.70;0.43;;;;;;;21.92;28.58;98753.59;5070446;28;20160;-57
2021/12/03 03:10:20;;;;;;;0.50;0.40;;;;;;;21.93;27.96;98758.00;5070253;28;20460;-57
2021/12/03 03:12:46;;;;;;;0.75;0.38;;;;;;;21.65;28.61;98774.69;5070554;28;20374;-56
2021/12/03 03:15:12;;;;;;;0.75;0.50;;;;;;;21.39;28.81;98768.25;5069975;28;20401;-56
2021/12/03 03:17:40;;;;;;;0.57;0.32;;;;;;;21.17;29.15;98777.72;5069800;28;20063;-56
2021/12/03 03:20:08;;;;;;;0.60;0.40;;;;;;;21.01;29.27;98771.72;5070335;28;20060;-56
2021/12/03 03:22:35;;;;;;;0.40;0.30;;;;;;;20.91;29.41;98776.03;5070275;28;20055;-56
2021/12/03 03:25:01;;;;;;;0.80;0.40;;;;;;;20.81;29.75;98777.56;5070178;28;20465;-56
2021/12/03 03:27:29;;;;;;;0.40;0.40;;;;;;;20.75;29.59;98773.56;5070442;28;20051;-56
2021/12/03 03:29:56;;;;;;;0.35;0.30;;;;;;;20.67;29.76;98783.06;5068936;28;20064;-56
2021/12/03 03:32:22;;;;;;;0.70;0.40;;;;;;;20.64;29.98;98788.59;5070271;28;20044;-56
2021/12/03 03:34:47;;;;;;;0.50;0.40;;;;;;;20.64;30.04;98785.81;5070087;28;20451;-56
2021/12/03 03:37:13;;;;;;;1.02;0.50;;;;;;;20.59;29.93;98798.09;5070059;28;20048;-56
2021/12/03 03:39:40;;;;;;;0.50;0.30;;;;;;;20.60;30.07;98811.59;5070050;28;20051;-56
2021/12/03 03:42:06;;;;;;;0.60;0.30;;;;;;;20.56;30.11;98799.66;5069922;28;20531;-56
2021/12/03 03:44:32;;;;;;;0.30;0.30;;;;;;;20.54;30.11;98806.81;5070087;28;20063;-57
2021/12/03 03:47:00;;;;;;;0.63;0.40;;;;;;;20.54;30.05;98801.25;5070061;28;20040;-56
2021/12/03 03:49:26;;;;;;;0.70;0.40;;;;;;;20.51;30.14;98790.91;5070025;28;20079;-56
2021/12/03 03:51:52;;;;;;;0.52;0.30;;;;;;;20.53;30.05;98803.22;5069671;28;20415;-56
2021/12/03 03:54:18;;;;;;;0.43;0.30;;;;;;;20.52;30.00;98793.31;5069462;28;20045;-56
2021/12/03 03:56:45;;;;;;;0.60;0.35;;;;;;;20.52;29.93;98800.84;5069702;28;20135;-56
2021/12/03 03:59:11;;;;;;;0.60;0.30;;;;;;;20.50;29.87;98794.84;5069426;28;20039;-56
2021/12/03 04:01:37;;;;;;;0.52;0.35;;;;;;;20.49;29.76;98798.81;5069891;28;20404;-56
2021/12/03 04:04:03;;;;;;;0.60;0.35;;;;;;;20.47;29.85;98802.00;5069832;28;20098;-56
2021/12/03 04:06:29;;;;;;;1.20;0.50;;;;;;;20.51;29.93;98807.59;5069210;28;20454;-56
2021/12/03 04:08:54;;;;;;;0.68;0.40;;;;;;;20.51;29.72;98793.69;5069281;28;20055;-56
2021/12/03 04:11:23;;;;;;;2.50;0.30;;;;;;;20.49;29.51;98796.03;5069294;28;20054;-56
2021/12/03 04:13:50;;;;;;;0.55;0.32;;;;;;;20.48;29.50;98797.25;5069805;28;20076;-57
2021/12/03 04:16:16;;;;;;;0.82;0.50;;;;;;;20.78;29.25;98797.78;5069565;28;20055;-57
2021/12/03 04:18:42;;;;;;;0.77;0.50;;;;;;;21.79;27.84;98796.13;5069418;28;20044;-57
2021/12/03 04:21:08;;;;;;;0.43;0.30;;;;;;;21.87;27.51;98795.78;5069430;28;20094;-57
2021/12/03 04:23:33;;;;;;;0.50;0.30;;;;;;;21.64;27.51;98812.03;5069707;28;20044;-57
2021/12/03 04:25:59;;;;;;;0.60;0.38;;;;;;;21.39;28.23;98811.97;5068532;28;20512;-57
2021/12/03 04:28:25;;;;;;;0.82;0.40;;;;;;;21.21;28.39;98823.00;5069087;28;20122;-57
2021/12/03 04:30:51;;;;;;;0.60;0.40;;;;;;;21.06;28.45;98829.69;5069248;28;20522;-56
2021/12/03 04:33:18;;;;;;;0.55;0.32;;;;;;;20.91;28.54;98830.81;5069151;28;20055;-57
2021/12/03 04:35:44;;;;;;;0.70;0.40;;;;;;;20.82;28.69;98831.19;5069172;28;21059;-57
2021/12/03 04:38:10;;;;;;;0.60;0.40;;;;;;;20.76;28.62;98836.31;5069140;28;20535;-57
2021/12/03 04:40:37;;;;;;;0.82;0.50;;;;;;;20.71;28.91;98842.22;5069143;28;20072;-56
2021/12/03 04:43:04;;;;;;;0.63;0.40;;;;;;;20.69;28.65;98841.03;5068868;28;20462;-57
2021/12/03 04:45:30;;;;;;;1.38;0.43;;;;;;;20.65;28.87;98852.13;5068921;28;20469;-57
2021/12/03 04:47:57;;;;;;;1.83;0.80;;;;;;;20.63;28.90;98856.47;5068785;28;20129;-57
2021/12/03 04:50:29;;;;;;;0.70;0.40;;;;;;;20.61;29.01;98856.88;5069031;28;20047;-57
2021/12/03 04:52:54;;;;;;;0.73;0.50;;;;;;;20.57;29.12;98864.38;5068929;28;20109;-57
2021/12/03 04:55:21;;;;;;;0.80;0.50;;;;;;;20.57;29.12;98867.13;5069141;28;20044;-56
2021/12/03 04:57:50;;;;;;;0.65;0.43;;;;;;;20.56;29.20;98869.13;5068978;28;20051;-56
2021/12/03 05:00:19;;;;;;;0.50;0.40;;;;;;;20.55;29.16;98872.28;5068809;28;20072;-56
2021/12/03 05:02:45;;;;;;;0.75;0.50;;;;;;;20.55;29.05;98878.66;5068706;28;20041;-56
2021/12/03 05:05:11;;;;;;;1.83;0.50;;;;;;;20.54;29.05;98882.63;5068776;28;20515;-56
2021/12/03 05:10:07;;;;;;;0.60;0.40;;;;;;;20.53;29.38;98891.34;5068742;28;20135;-56
2021/12/03 05:12:32;;;;;;;0.52;0.40;;;;;;;20.53;29.13;98900.47;5068616;28;20157;-56
2021/12/03 05:14:58;;;;;;;0.30;0.30;;;;;;;20.53;29.21;98900.47;5068748;28;20594;-56
2021/12/03 05:17:23;;;;;;;0.90;0.47;;;;;;;20.52;29.17;98900.88;5068599;28;20583;-56
2021/12/03 05:19:49;;;;;;;0.82;0.50;;;;;;;20.49;29.23;98909.94;5068758;28;20091;-56
2021/12/03 05:22:14;;;;;;;0.98;0.45;;;;;;;20.48;29.25;98917.50;5068561;28;20072;-56
2021/12/03 05:24:45;;;;;;;0.73;0.43;;;;;;;20.47;29.20;98923.44;5068561;28;20583;-56
2021/12/03 05:27:11;;;;;;;1.13;0.60;;;;;;;20.45;29.13;98932.16;5068600;28;20044;-56
2021/12/03 05:29:36;;;;;;;0.80;0.40;;;;;;;20.46;29.10;98933.75;5068428;28;20048;-56
2021/12/03 05:32:02;;;;;;;1.10;0.60;;;;;;;20.47;29.17;98934.53;5068315;28;20101;-56
2021/12/03 05:34:28;;;;;;;0.73;0.45;;;;;;;20.47;29.04;98940.09;5068500;28;20068;-56
2021/12/03 05:36:53;;;;;;;0.57;0.40;;;;;;;20.43;29.17;98942.84;5068734;28;20563;-56
2021/12/03 05:39:19;;;;;;;1.17;0.60;;;;;;;20.47;29.32;98949.22;5072124;28;20045;-56
2021/12/03 05:41:45;;;;;;;0.85;0.40;;;;;;;20.46;29.33;98955.19;5072185;28;20459;-56
2021/12/03 05:44:10;;;;;;;0.82;0.45;;;;;;;20.47;29.18;98956.78;5071859;28;20057;-57
2021/12/03 05:46:35;;;;;;;0.85;0.50;;;;;;;20.49;29.24;98977.41;5071668;28;20063;-57
2021/12/03 05:49:01;;;;;;;0.68;0.40;;;;;;;20.48;29.29;98975.03;5071874;28;20052;-57
2021/12/03 05:51:28;;;;;;;0.63;0.40;;;;;;;20.48;29.19;98986.16;5071565;28;20454;-57
2021/12/03 05:53:54;;;;;;;0.32;0.30;;;;;;;20.46;29.10;98980.19;5071518;28;20115;-57
2021/12/03 05:56:19;;;;;;;0.82;0.50;;;;;;;20.46;29.13;98994.06;5071747;28;20049;-57
2021/12/03 05:58:45;;;;;;;0.32;0.30;;;;;;;20.45;28.94;98996.06;5071912;28;20076;-57
2021/12/03 06:01:11;;;;;;;0.75;0.52;;;;;;;20.47;29.38;99001.22;5071428;28;20048;-57
2021/12/03 06:03:36;;;;;;;0.75;0.50;;;;;;;20.46;29.26;99011.53;5071366;28;20051;-57
2021/12/03 06:06:03;;;;;;;0.75;0.50;;;;;;;20.44;29.19;99005.56;5071565;28;20044;-56
2021/12/03 06:08:28;;;;;;;0.80;0.45;;;;;;;20.45;28.99;99020.25;5071210;28;20045;-56
2021/12/03 06:10:54;;;;;;;1.27;0.60;;;;;;;20.45;29.09;99021.06;5071481;28;20424;-56
2021/12/03 06:13:19;;;;;;;0.90;0.43;;;;;;;20.45;29.31;99023.03;5071294;28;20446;-56
2021/12/03 06:15:44;;;;;;;0.75;0.40;;;;;;;20.43;29.20;99023.41;5071242;28;20037;-56
2021/12/03 06:18:10;;;;;;;1.25;0.60;;;;;;;20.45;29.20;99034.94;5071361;28;20040;-56
2021/12/03 06:20:36;;;;;;;0.80;0.50;;;;;;;20.44;29.23;99043.63;5071388;28;20500;-56
2021/12/03 06:23:01;;;;;;;1.02;0.50;;;;;;;20.43;29.33;99050.34;5071384;28;20041;-56
2021/12/03 06:25:26;;;;;;;0.55;0.47;;;;;;;20.43;29.39;99051.19;5071338;28;20056;-56
2021/12/03 06:27:56;;;;;;;0.88;0.50;;;;;;;20.42;29.23;99049.56;5071374;28;20036;-56
2021/12/03 06:30:23;;;;;;;0.60;0.43;;;;;;;20.41;29.28;99061.84;5071441;28;20453;-56
2021/12/03 06:32:49;;;;;;;0.73;0.50;;;;;;;20.42;29.44;99065.41;5071074;28;20091;-56
2021/12/03 06:35:16;;;;;;;0.88;0.60;;;;;;;20.44;29.38;99063.09;5071064;28;20128;-56
2021/12/03 06:37:41;;;;;;;0.50;0.40;;;;;;;20.44;29.33;99071.41;5070961;28;20083;-56
2021/12/03 06:40:11;;;;;;;0.93;0.50;;;;;;;20.44;29.33;99074.19;5071148;28;20507;-56
2021/12/03 06:42:36;;;;;;;0.63;0.47;;;;;;;20.43;29.29;99073.41;5070941;28;20067;-55
2021/12/03 06:45:06;;;;;;;0.98;0.60;;;;;;;20.44;29.46;99076.97;5071145;28;20080;-56
2021/12/03 06:47:31;;;;;;;1.00;0.57;;;;;;;20.45;29.40;99078.59;5070885;28;20041;-56
2021/12/03 06:49:57;;;;;;;0.70;0.50;;;;;;;20.46;29.51;99072.66;5069819;28;20076;-56
2021/12/03 06:52:23;;;;;;;0.73;0.45;;;;;;;20.45;29.34;99081.38;5070647;28;20403;-56
2021/12/03 06:54:55;;;;;;;1.05;0.60;;;;;;;20.46;29.39;99089.31;5070515;28;20052;-56
2021/12/03 06:57:21;;;;;;;0.43;0.40;;;;;;;20.45;29.46;99084.94;5070617;28;20037;-56
2021/12/03 06:59:46;;;;;;;0.88;0.50;;;;;;;20.47;29.68;99096.47;5070554;28;20390;-56
2021/12/03 07:02:13;;;;;;;3.50;0.50;;;;;;;20.48;29.81;99098.06;5070740;28;20104;-57
2021/12/03 07:04:40;;;;;;;18.33;1.58;;;;;;;20.46;29.70;99094.88;5070541;28;20036;-57
2021/12/03 07:07:05;;;;;;;14.88;1.20;;;;;;;20.47;29.87;99107.59;5070662;28;20076;-57
2021/12/03 07:09:31;;;;;;;9.18;1.08;;;;;;;20.47;29.91;99106.78;5070450;28;20079;-57
2021/12/03 07:11:56;;;;;;;8.10;1.02;;;;;;;20.47;29.78;99113.16;5070254;28;20049;-57
2021/12/03 07:14:21;;;;;;;7.60;1.00;;;;;;;20.43;29.97;99111.47;5070339;28;20059;-57
2021/12/03 07:16:47;;;;;;;3.60;0.65;;;;;;;20.45;29.77;99123.03;5070489;28;20049;-57
2021/12/03 07:19:12;;;;;;;3.80;0.60;;;;;;;20.45;29.85;99126.63;5070256;28;20044;-57
2021/12/03 07:21:38;;;;;;;8.50;1.00;;;;;;;20.44;29.86;99121.41;5070343;28;20068;-57
2021/12/03 07:24:04;;;;;;;8.70;0.88;;;;;;;20.44;29.93;99126.97;5070308;28;20048;-57
2021/12/03 07:26:29;;;;;;;9.07;1.27;;;;;;;20.42;29.90;99130.09;5070386;28;20049;-57
2021/12/03 07:28:55;;;;;;;1.73;0.70;;;;;;;20.41;29.75;99130.50;5070239;28;20113;-57
2021/12/03 07:31:21;;;;;;;4.28;0.80;;;;;;;20.41;29.82;99130.50;5070088;28;20048;-57
2021/12/03 07:33:47;;;;;;;6.10;1.15;;;;;;;20.42;29.83;99134.88;5070017;28;20083;-57
2021/12/03 07:36:12;;;;;;;2.28;0.65;;;;;;;20.41;29.96;99139.63;5070058;28;20068;-57
2021/12/03 07:38:38;;;;;;;8.45;0.80;;;;;;;20.39;29.85;99144.78;5069970;28;20464;-57
2021/12/03 07:41:04;;;;;;;3.65;0.63;;;;;;;20.40;29.89;99149.13;5069846;28;20515;-57
2021/12/03 07:43:30;;;;;;;8.10;0.80;;;;;;;20.42;29.97;99143.19;5069756;28;20105;-57
2021/12/03 07:45:55;;;;;;;2.33;0.80;;;;;;;20.42;29.88;99143.19;5070040;28;20045;-56
2021/12/03 07:48:22;;;;;;;3.28;0.70;;;;;;;20.41;29.90;99152.72;5067288;28;20475;-57
2021/12/03 07:50:52;;;;;;;2.22;0.70;;;;;;;20.41;29.88;99159.06;5068555;28;20044;-57
2021/12/03 07:53:18;;;;;;;2.95;0.90;;;;;;;20.41;29.72;99161.84;5069406;28;20135;-57
2021/12/03 07:55:48;;;;;;;4.93;0.82;;;;;;;20.41;29.66;99159.06;5063722;28;20048;-57
2021/12/03 07:58:14;;;;;;;1.70;0.77;;;;;;;20.42;29.82;99168.19;5065482;28;20619;-56
2021/12/03 08:00:41;;;;;;;1.55;0.70;;;;;;;20.42;29.93;99170.97;5065409;28;20500;-57
2021/12/03 08:03:06;;;;;;;1.35;0.70;;;;;;;20.41;29.72;99172.16;5066905;28;20044;-54
2021/12/03 08:05:32;;;;;;;3.15;0.93;;;;;;;20.41;29.85;99178.50;5068513;28;20045;-55
2021/12/03 08:07:59;;;;;;;2.38;0.80;;;;;;;20.42;29.82;99182.09;5069144;28;20381;-56
2021/12/03 08:10:25;;;;;;;2.75;0.57;;;;;;;20.42;29.82;99171.78;5066879;28;20416;-49
2021/12/03 08:12:51;;;;;;;2.63;1.00;;;;;;;20.40;29.06;99178.91;5068035;28;20040;-51
2021/12/03 08:15:17;;;;;;;2.95;1.00;;;;;;;20.40;29.03;99179.69;5065752;28;20044;-51
2021/12/03 08:17:42;;;;;;;3.47;1.02;;;;;;;20.42;28.88;99182.88;5066092;28;20060;-52
2021/12/03 08:20:09;;;;;;;3.10;1.00;;;;;;;20.50;29.19;99183.81;5049578;28;20497;-49
2021/12/03 08:22:35;;;;;;;2.00;0.85;;;;;;;20.51;29.15;99188.22;5068691;28;20040;-56
2021/12/03 08:25:00;;;;;;;1.65;0.80;;;;;;;20.52;28.98;99192.59;5068885;28;20526;-56
2021/12/03 08:27:26;;;;;;;2.10;0.93;;;;;;;20.56;29.18;99198.97;5068160;28;20098;-51
2021/12/03 08:29:51;;;;;;;2.25;0.95;;;;;;;20.58;29.16;99202.19;5068596;28;20049;-51
2021/12/03 08:32:17;;;;;;;2.42;1.20;;;;;;;20.63;29.09;99209.38;5068440;28;20468;-48
2021/12/03 08:34:42;;;;;;;1.98;1.20;;;;;;;20.63;29.20;99214.94;5065677;28;20468;-52
2021/12/03 08:37:09;;;;;;;2.63;1.23;;;;;;;20.66;29.30;99211.41;5067977;28;20051;-50
2021/12/03 08:39:35;;;;;;;2.10;1.15;;;;;;;20.69;29.06;99210.66;5067199;28;20799;-51
2021/12/03 08:42:01;;;;;;;1.98;1.00;;;;;;;20.69;28.96;99217.00;5065818;28;20041;-52
2021/12/03 08:44:26;;;;;;;2.08;1.02;;;;;;;20.68;29.01;99218.19;5064231;28;20566;-49
2021/12/03 08:47:04;;;;;;;1.67;0.95;;;;;;;20.73;29.15;99228.97;5039862;28;20075;-48
2021/12/03 08:49:33;;;;;;;1.88;0.88;;;;;;;20.72;29.32;99241.28;5066316;28;20412;-47
2021/12/03 08:54:55;;;;;;;1.95;0.95;;;;;;;20.75;29.29;99240.50;5049295;28;20492;-54
2021/12/03 08:57:34;;;;;;;2.80;1.00;;;;;;;20.78;29.43;99250.06;5058957;28;20036;-51
2021/12/03 09:00:06;;;;;;;1.83;1.02;;;;;;;20.79;29.25;99252.47;5061093;28;20135;-53
2021/12/03 09:02:32;;;;;;;2.03;1.20;;;;;;;20.82;29.36;99254.50;5069377;28;20048;-49
2021/12/03 09:04:57;;;;;;;2.05;1.10;;;;;;;20.84;29.55;99260.47;5051427;28;20047;-55
2021/12/03 09:07:23;;;;;;;2.40;1.10;;;;;;;20.86;29.61;99260.91;5053379;28;20552;-55
2021/12/03 09:09:48;;;;;;;2.15;1.00;;;;;;;20.91;29.45;99273.66;5063932;28;20048;-55
2021/12/03 09:12:14;;;;;;;1.92;1.15;;;;;;;20.92;29.60;99271.66;5066927;28;20044;-56
2021/12/03 09:14:43;;;;;;;2.20;1.10;;;;;;;20.90;29.38;99283.19;5052549;28;20389;-54
2021/12/03 09:19:46;;;;;;;1.35;0.90;;;;;;;20.96;29.51;99286.44;5067861;28;20063;-54
2021/12/03 09:22:18;;;;;;;2.88;1.38;;;;;;;21.00;29.14;99285.28;5069350;28;20048;-54
2021/12/03 09:24:43;;;;;;;2.47;1.10;;;;;;;21.02;29.34;99294.06;5064691;28;20041;-55
2021/12/03 09:27:09;;;;;;;1.50;0.90;;;;;;;21.07;29.08;99295.69;5069443;28;20059;-53
2021/12/03 09:29:36;;;;;;;2.00;1.10;;;;;;;21.08;28.98;99297.31;5069815;28;20417;-53
2021/12/03 09:32:02;;;;;;;2.67;1.20;;;;;;;21.05;29.05;99293.28;5069914;28;20105;-55
2021/12/03 09:34:30;;;;;;;1.83;1.00;;;;;;;21.06;29.12;99296.88;5066484;28;20473;-53
2021/12/03 09:36:57;;;;;;;2.05;1.00;;;;;;;21.02;29.08;99302.41;5070218;28;20048;-54
2021/12/03 09:39:24;;;;;;;2.83;1.17;;;;;;;21.03;29.13;99304.00;5068661;28;20041;-53
2021/12/03 09:41:54;;;;;;;4.20;1.20;;;;;;;21.03;28.95;99306.78;5068177;28;20044;-51
2021/12/03 09:44:21;;;;;;;1.52;0.90;;;;;;;21.04;29.05;99318.69;5053341;28;20040;-53
2021/12/03 09:46:48;;;;;;;1.70;1.10;;;;;;;21.03;29.13;99304.00;5066314;28;20043;-52
2021/12/03 09:54:25;;;;;;;2.08;0.98;;;;;;;21.01;29.95;99298.03;5067571;28;20048;-57
2021/12/03 09:56:56;;;;;;;1.77;0.90;;;;;;;21.05;29.95;99293.28;5061243;28;20086;-56
2021/12/03 10:04:43;;;;;;;1.63;0.90;;;;;;;21.09;30.32;99288.59;5057291;28;20507;-56
2021/12/03 10:15:09;;;;;;;;;;;;;;;21.16;30.32;99287.88;5072843;28;20067;-56
2021/12/03 10:20:17;;;;;;;3.55;1.67;;;;;;;21.12;30.50;99284.22;5063560;28;20457;-58
2021/12/03 10:45:14;;;;;;;3.42;1.80;;;;;;;21.21;30.08;99273.59;4986156;28;20197;-54
2021/12/03 10:50:22;;;;;;;3.05;1.60;;;;;;;21.19;30.00;99270.41;4989078;28;20050;-57
2021/12/03 11:26:01;;;;;;;3.55;1.63;;;;;;;21.31;30.27;99267.38;5026253;28;20133;-58
2021/12/03 11:30:30;;;;;;;2.95;1.73;;;;;;;21.25;30.32;99271.66;5027663;28;20068;-68
2021/12/03 12:18:02;;;;;;;3.33;1.27;;;;;;;21.03;30.29;99265.06;5057621;28;20040;-54
2021/12/03 12:26:19;;;;;;;2.15;1.13;;;;;;;21.00;30.72;99256.66;5023229;28;20048;-52
2021/12/03 14:32:17;;;;;;;7.30;1.20;;;;;;;20.82;30.16;99165.53;5068218;28;20080;-54
2021/12/03 14:42:02;;;;;;;7.47;1.30;;;;;;;20.81;30.11;99152.81;5063432;28;20043;-55
2021/12/03 14:44:54;;;;;;;6.00;1.20;;;;;;;20.78;30.00;99153.56;4997499;28;20057;-54
2021/12/03 14:52:45;;;;;;;13.57;1.67;;;;;;;20.70;30.02;99153.88;4985650;28;20053;-54
2021/12/03 14:55:10;;;;;;;150.10;15.52;;;;;;;20.70;29.96;99165.78;4989434;28;20034;-65
2021/12/03 15:00:18;;;;;;;146.13;15.38;;;;;;;20.72;30.38;99171.00;4982290;28;21581;-67
2021/12/03 15:05:57;;;;;;;113.30;10.82;;;;;;;20.71;30.47;99172.94;4987721;28;20228;-66
2021/12/03 15:08:35;;;;;;;79.45;10.20;;;;;;;20.74;30.07;99168.63;4979190;28;20137;-52
2021/12/03 15:24:57;;;;;;;51.22;5.80;;;;;;;20.85;30.92;99183.44;5064177;28;20564;-55
2021/12/03 16:08:21;;;;;;;13.73;2.17;;;;;;;21.32;29.38;99229.25;5057703;28;20059;-54
2021/12/03 16:17:04;;;;;;;36.53;4.28;;;;;;;21.01;29.52;99242.41;5058223;28;20085;-55
2021/12/03 16:19:38;;;;;;;47.80;4.15;;;;;;;20.96;29.44;99247.50;5047931;28;20435;-55
2021/12/03 16:25:03;;;;;;;20.35;2.80;;;;;;;20.88;29.42;99247.41;5058782;28;20409;-56
2021/12/03 16:46:28;;;;;;;24.90;1.88;;;;;;;20.79;29.48;99230.25;5064968;28;20036;-52
2021/12/03 16:51:29;;;;;;;44.08;26.00;;;;;;;20.77;28.41;99229.00;5061871;28;20053;-50
2021/12/03 16:54:10;;;;;;;36.95;23.40;;;;;;;20.29;28.17;99228.78;5054555;28;20120;-54
2021/12/03 16:56:42;;;;;;;18.70;12.00;;;;;;;20.24;29.05;99232.66;5064079;28;20040;-47
2021/12/03 16:59:08;;;;;;;17.05;12.13;;;;;;;20.23;28.72;99236.63;5063058;28;20059;-47
2021/12/03 17:01:45;;;;;;;16.17;10.27;;;;;;;20.26;28.85;99235.06;5067350;28;20044;-47
2021/12/03 17:12:21;;;;;;;15.95;7.60;;;;;;;20.32;28.85;99228.00;5068317;28;20068;-49
2021/12/03 17:47:38;;;;;;;4.60;3.22;;;;;;;20.43;29.38;99244.81;5071674;28;20054;-68
2021/12/03 17:57:08;;;;;;;5.53;3.03;;;;;;;20.45;29.24;99242.50;5071465;28;20048;-50
2021/12/03 17:59:43;;;;;;;4.47;3.05;;;;;;;20.45;29.40;99237.75;5071556;28;20618;-47
2021/12/03 18:02:18;;;;;;;3.95;2.50;;;;;;;20.45;29.17;99215.53;5071490;28;20055;-47
2021/12/03 18:09:58;;;;;;;6.88;2.55;;;;;;;20.46;29.53;99227.44;5071080;28;20520;-49
2021/12/03 18:55:13;;;;;;;3.00;1.90;;;;;;;20.53;29.68;99230.31;5066450;28;20074;-48
2021/12/03 18:57:46;;;;;;;2.90;1.70;;;;;;;20.53;29.70;99245.00;5070683;28;20044;-48
2021/12/03 19:00:15;;;;;;;3.15;1.77;;;;;;;20.56;29.46;99247.00;5071035;28;20051;-50
2021/12/03 19:02:44;;;;;;;3.00;1.70;;;;;;;20.55;29.48;99228.75;5070566;28;20094;-54
2021/12/03 19:07:51;;;;;;;2.53;1.63;;;;;;;20.56;29.58;99210.88;5070296;28;20079;-49
2021/12/03 19:10:23;;;;;;;3.42;1.80;;;;;;;20.57;29.63;99214.47;5069509;28;20093;-47
2021/12/03 19:13:05;;;;;;;2.85;1.65;;;;;;;20.57;29.46;99220.03;5070282;28;20139;-47
2021/12/03 19:15:31;;;;;;;2.35;1.60;;;;;;;20.56;29.71;99219.22;5069971;28;20508;-49
2021/12/03 19:18:02;;;;;;;2.97;1.50;;;;;;;20.56;29.63;99215.63;5070586;28;20147;-47